Time;durP1;ratioP1;P1;durP2;ratioP2;P2;SDS_P1;SDS_P2;PMS_P1;PMS_P2;Temp;Humidity;BMP_temperature;BMP_pressure;BME280_temperature;BME280_humidity;BME280_pressure;Samples;Min_cycle;Max_cycle;Signal;HPM_P1;HPM_P2
2023/01/13 00:00:27;;;;;;;6.90;4.10;;;;;;;;;;102788;1336;31517;-41
2023/01/13 00:03:24;;;;;;;6.70;4.30;;;;;;;;;;102543;1336;335570;-41
2023/01/13 00:06:04;;;;;;;6.60;4.30;;;;;;;;;;102572;1337;30947;-41
2023/01/13 00:08:39;;;;;;;6.80;4.20;;;;;;;;;;102539;1338;29044;-40
2023/01/13 00:11:17;;;;;;;6.70;4.10;;;;;;;;;;102425;1339;183819;-41
2023/01/13 00:13:52;;;;;;;6.60;4.20;;;;;;;;;;102553;1339;32531;-40
2023/01/13 00:16:27;;;;;;;6.70;4.10;;;;;;;;;;102682;1336;29478;-40
2023/01/13 00:19:02;;;;;;;6.20;3.80;;;;;;;;;;102773;1336;28943;-41
2023/01/13 00:21:39;;;;;;;6.90;4.40;;;;;;;;;;102773;1336;30201;-41
2023/01/13 00:24:14;;;;;;;6.50;4.10;;;;;;;;;;102810;1336;30753;-41
2023/01/13 00:26:49;;;;;;;6.80;4.40;;;;;;;;;;102534;1339;29548;-41
2023/01/13 00:29:24;;;;;;;7.90;4.30;;;;;;;;;;102483;1340;28680;-42
2023/01/13 00:31:59;;;;;;;6.90;4.10;;;;;;;;;;102528;1339;32925;-43
2023/01/13 00:34:36;;;;;;;6.20;4.00;;;;;;;;;;102370;1339;184392;-41
2023/01/13 00:37:13;;;;;;;6.60;4.00;;;;;;;;;;102735;1336;29779;-41
2023/01/13 00:39:48;;;;;;;6.60;4.20;;;;;;;;;;102788;1336;29966;-41
2023/01/13 00:45:17;;;;;;;;;;;;;;;;;;102837;1351;30801;-41
2023/01/13 00:47:55;;;;;;;6.00;3.80;;;;;;;;;;102525;1337;37202;-41
2023/01/13 00:50:30;;;;;;;7.00;4.00;;;;;;;;;;102561;1337;28832;-41
2023/01/13 00:53:05;;;;;;;6.30;3.80;;;;;;;;;;102531;1337;30087;-41
2023/01/13 00:55:39;;;;;;;6.40;4.20;;;;;;;;;;102515;1337;30901;-41
2023/01/13 00:58:14;;;;;;;6.00;3.80;;;;;;;;;;102840;1336;29733;-42
2023/01/13 01:00:49;;;;;;;6.50;4.00;;;;;;;;;;102826;1336;28524;-41
2023/01/13 01:03:28;;;;;;;7.20;3.90;;;;;;;;;;102806;1336;29849;-41
2023/01/13 01:06:09;;;;;;;6.50;4.10;;;;;;;;;;102736;1336;31145;-42
2023/01/13 01:08:47;;;;;;;6.50;3.70;;;;;;;;;;102529;1337;30892;-40
2023/01/13 01:11:25;;;;;;;6.20;4.00;;;;;;;;;;102540;1337;28671;-41
2023/01/13 01:14:04;;;;;;;6.40;4.00;;;;;;;;;;102571;1337;30462;-41
2023/01/13 01:16:40;;;;;;;6.60;3.80;;;;;;;;;;102601;1336;31079;-42
2023/01/13 01:19:15;;;;;;;6.20;3.80;;;;;;;;;;102803;1336;29876;-40
2023/01/13 01:21:51;;;;;;;6.30;3.90;;;;;;;;;;102865;1335;28718;-41
2023/01/13 01:24:26;;;;;;;6.00;3.90;;;;;;;;;;102852;1336;30302;-41
2023/01/13 01:27:00;;;;;;;6.20;4.00;;;;;;;;;;102677;1337;31673;-40
2023/01/13 01:29:36;;;;;;;6.80;4.10;;;;;;;;;;102529;1337;29703;-40
2023/01/13 01:32:11;;;;;;;6.10;3.70;;;;;;;;;;102544;1337;28752;-42
2023/01/13 01:34:48;;;;;;;6.20;3.90;;;;;;;;;;102519;1337;30573;-40
2023/01/13 01:37:23;;;;;;;6.10;3.70;;;;;;;;;;102627;1336;32508;-41
2023/01/13 01:39:58;;;;;;;6.50;3.80;;;;;;;;;;102795;1336;32127;-41
2023/01/13 01:45:30;;;;;;;6.40;3.70;;;;;;;;;;102838;1336;30351;-40
2023/01/13 01:48:07;;;;;;;6.20;3.60;;;;;;;;;;102500;1337;176634;-40
2023/01/13 01:50:43;;;;;;;6.10;3.60;;;;;;;;;;102571;1337;29445;-41
2023/01/13 01:53:23;;;;;;;6.10;3.60;;;;;;;;;;102522;1337;29148;-40
2023/01/13 01:56:01;;;;;;;6.60;3.80;;;;;;;;;;102546;1337;30237;-41
2023/01/13 01:58:44;;;;;;;6.20;3.60;;;;;;;;;;102712;1336;31184;-41
2023/01/13 02:01:19;;;;;;;6.50;3.80;;;;;;;;;;102807;1336;31113;-41
2023/01/13 02:04:02;;;;;;;6.00;3.80;;;;;;;;;;102779;1336;30128;-41
2023/01/13 02:06:37;;;;;;;6.40;3.80;;;;;;;;;;102832;1336;30327;-40
2023/01/13 02:09:12;;;;;;;6.30;3.70;;;;;;;;;;102516;1337;31236;-40
2023/01/13 02:14:42;;;;;;;6.80;3.80;;;;;;;;;;102534;1337;28765;-40
2023/01/13 02:17:32;;;;;;;5.70;3.50;;;;;;;;;;102542;1336;30090;-40
2023/01/13 02:20:50;;;;;;;6.60;3.70;;;;;;;;;;102829;1336;30677;-41
2023/01/13 02:27:44;;;;;;;6.00;3.40;;;;;;;;;;102790;1337;28969;-40
2023/01/13 02:33:42;;;;;;;5.70;3.10;;;;;;;;;;102551;1337;32683;-41
2023/01/13 02:36:27;;;;;;;6.20;3.60;;;;;;;;;;102550;1337;29891;-42
2023/01/13 02:39:07;;;;;;;6.70;3.60;;;;;;;;;;102645;1336;28553;-40
2023/01/13 02:44:51;;;;;;;6.30;3.80;;;;;;;;;;102802;1336;31042;-41
2023/01/13 02:47:32;;;;;;;5.70;3.50;;;;;;;;;;102816;1336;29645;-41
2023/01/13 02:50:13;;;;;;;6.00;3.40;;;;;;;;;;102581;1337;28946;-40
2023/01/13 02:52:55;;;;;;;6.20;3.50;;;;;;;;;;102397;1337;176815;-41
2023/01/13 02:55:36;;;;;;;6.10;3.50;;;;;;;;;;102519;1337;31167;-41
2023/01/13 02:58:14;;;;;;;6.30;3.40;;;;;;;;;;102540;1337;29548;-41
2023/01/13 03:00:50;;;;;;;6.30;3.40;;;;;;;;;;102766;1336;39357;-41
2023/01/13 03:03:25;;;;;;;6.30;3.60;;;;;;;;;;102790;1336;30359;-41
2023/01/13 03:06:19;;;;;;;6.00;3.70;;;;;;;;;;102817;1336;31246;-41
2023/01/13 03:09:07;;;;;;;5.50;3.10;;;;;;;;;;102753;1336;30920;-41
2023/01/13 03:11:56;;;;;;;6.00;3.40;;;;;;;;;;102572;1337;29125;-41
2023/01/13 03:14:49;;;;;;;5.30;3.00;;;;;;;;;;102566;1337;30378;-41
2023/01/13 03:17:36;;;;;;;5.90;3.20;;;;;;;;;;102458;1337;176639;-40
2023/01/13 03:20:21;;;;;;;5.90;3.30;;;;;;;;;;102653;1336;29644;-40
2023/01/13 03:23:06;;;;;;;6.00;3.30;;;;;;;;;;102835;1337;30116;-40
2023/01/13 03:25:55;;;;;;;5.80;3.20;;;;;;;;;;102795;1336;30503;-41
2023/01/13 03:28:36;;;;;;;5.30;3.00;;;;;;;;;;102794;1337;30875;-41
2023/01/13 03:31:17;;;;;;;6.00;3.40;;;;;;;;;;102503;1337;30054;-41
2023/01/13 03:33:59;;;;;;;5.80;3.20;;;;;;;;;;102533;1337;28917;-42
2023/01/13 03:36:38;;;;;;;5.50;3.10;;;;;;;;;;102560;1337;30356;-40
2023/01/13 03:39:19;;;;;;;5.90;3.30;;;;;;;;;;102530;1337;32186;-41
2023/01/13 03:42:00;;;;;;;6.10;3.50;;;;;;;;;;102802;1337;39431;-41
2023/01/13 03:44:43;;;;;;;6.50;3.30;;;;;;;;;;102714;1336;178826;-41
2023/01/13 03:47:28;;;;;;;5.40;2.90;;;;;;;;;;102698;1336;176829;-41
2023/01/13 03:50:08;;;;;;;5.80;3.10;;;;;;;;;;102722;1337;30995;-41
2023/01/13 03:52:49;;;;;;;6.00;3.30;;;;;;;;;;102554;1337;29799;-41
2023/01/13 03:55:29;;;;;;;5.40;3.20;;;;;;;;;;102557;1337;28972;-41
2023/01/13 03:58:13;;;;;;;5.70;3.00;;;;;;;;;;102515;1337;30596;-42
2023/01/13 04:00:56;;;;;;;6.10;3.30;;;;;;;;;;102592;1336;31574;-41
2023/01/13 04:03:39;;;;;;;6.00;3.30;;;;;;;;;;102829;1336;29684;-42
2023/01/13 04:06:26;;;;;;;5.20;2.90;;;;;;;;;;102765;1336;28652;-41
2023/01/13 04:09:12;;;;;;;6.20;3.10;;;;;;;;;;102801;1336;30377;-40
2023/01/13 04:11:53;;;;;;;5.70;3.20;;;;;;;;;;102572;1337;30911;-41
2023/01/13 04:14:29;;;;;;;5.50;3.10;;;;;;;;;;102524;1337;29815;-41
2023/01/13 04:17:07;;;;;;;5.60;2.90;;;;;;;;;;102505;1337;29048;-41
2023/01/13 04:19:42;;;;;;;5.50;3.20;;;;;;;;;;102540;1337;30552;-41
2023/01/13 04:22:17;;;;;;;5.40;3.10;;;;;;;;;;102730;1336;31001;-41
2023/01/13 04:24:52;;;;;;;5.90;3.40;;;;;;;;;;102815;1336;29805;-40
2023/01/13 04:27:28;;;;;;;5.50;3.10;;;;;;;;;;102812;1336;28934;-41
2023/01/13 04:30:03;;;;;;;6.70;3.40;;;;;;;;;;102780;1336;30054;-41
2023/01/13 04:32:38;;;;;;;5.00;2.90;;;;;;;;;;102521;1337;31206;-41
2023/01/13 04:35:15;;;;;;;5.20;3.00;;;;;;;;;;102533;1337;29599;-40
2023/01/13 04:37:50;;;;;;;5.20;3.00;;;;;;;;;;102517;1337;28722;-41
2023/01/13 04:40:24;;;;;;;5.70;3.00;;;;;;;;;;102561;1337;30259;-41
2023/01/13 04:42:59;;;;;;;5.10;2.80;;;;;;;;;;102793;1336;41002;-41
2023/01/13 04:45:37;;;;;;;5.80;3.20;;;;;;;;;;102838;1336;29748;-41
2023/01/13 04:48:12;;;;;;;5.10;2.90;;;;;;;;;;102833;1336;28693;-41
2023/01/13 04:50:46;;;;;;;4.70;2.60;;;;;;;;;;102799;1336;30489;-41
2023/01/13 04:53:26;;;;;;;5.30;2.80;;;;;;;;;;102545;1337;38838;-41
2023/01/13 04:56:01;;;;;;;5.80;2.80;;;;;;;;;;102564;1337;29781;-41
2023/01/13 04:58:43;;;;;;;5.40;3.00;;;;;;;;;;102553;1337;29051;-41
2023/01/13 05:01:21;;;;;;;5.20;2.90;;;;;;;;;;102532;1337;30392;-41
2023/01/13 05:03:56;;;;;;;5.60;3.00;;;;;;;;;;102834;1336;30967;-41
2023/01/13 05:06:33;;;;;;;5.40;2.70;;;;;;;;;;102823;1336;30801;-41
2023/01/13 05:09:08;;;;;;;5.80;3.20;;;;;;;;;;102836;1336;29093;-41
2023/01/13 05:17:27;;;;;;;4.80;2.60;;;;;;;;;;102555;1337;29771;-41
2023/01/13 05:20:03;;;;;;;5.20;2.60;;;;;;;;;;102538;1337;29055;-41
2023/01/13 05:25:29;;;;;;;5.20;2.50;;;;;;;;;;102811;1336;30875;-41
2023/01/13 05:28:08;;;;;;;5.80;2.90;;;;;;;;;;102836;1336;29737;-42
2023/01/13 05:30:47;;;;;;;4.70;2.40;;;;;;;;;;102799;1336;28966;-41
2023/01/13 05:33:25;;;;;;;4.70;2.60;;;;;;;;;;102600;1337;30347;-40
2023/01/13 05:36:04;;;;;;;5.10;2.80;;;;;;;;;;102519;1337;31056;-40
2023/01/13 05:38:39;;;;;;;4.70;2.50;;;;;;;;;;102573;1337;29789;-40
2023/01/13 05:44:10;;;;;;;5.50;2.90;;;;;;;;;;102767;1336;30637;-48
2023/01/13 05:46:47;;;;;;;5.10;2.50;;;;;;;;;;102808;1336;30813;-44
2023/01/13 05:49:23;;;;;;;5.40;2.60;;;;;;;;;;102819;1336;30477;-45
2023/01/13 05:51:57;;;;;;;5.20;2.60;;;;;;;;;;102805;1336;29169;-44
2023/01/13 05:54:34;;;;;;;5.50;2.80;;;;;;;;;;102417;1337;176765;-44
2023/01/13 05:57:09;;;;;;;4.70;2.50;;;;;;;;;;102569;1337;32080;-44
2023/01/13 05:59:46;;;;;;;4.80;2.70;;;;;;;;;;102576;1337;29884;-43
2023/01/13 06:02:21;;;;;;;5.00;2.70;;;;;;;;;;102535;1337;29128;-43
2023/01/13 06:04:58;;;;;;;5.30;2.60;;;;;;;;;;102792;1336;30346;-44
2023/01/13 06:07:35;;;;;;;4.90;2.60;;;;;;;;;;102833;1336;31076;-44
2023/01/13 06:10:16;;;;;;;5.10;2.50;;;;;;;;;;102838;1336;29620;-45
2023/01/13 06:12:50;;;;;;;5.50;2.70;;;;;;;;;;102774;1337;29145;-44
2023/01/13 06:15:26;;;;;;;5.10;2.60;;;;;;;;;;102521;1337;31566;-44
2023/01/13 06:18:04;;;;;;;5.50;2.60;;;;;;;;;;102564;1337;31365;-43
2023/01/13 06:20:38;;;;;;;5.90;2.70;;;;;;;;;;102555;1337;29424;-44
2023/01/13 06:23:14;;;;;;;5.00;2.60;;;;;;;;;;102575;1336;29204;-44
2023/01/13 06:25:57;;;;;;;5.30;2.60;;;;;;;;;;102820;1336;30245;-45
2023/01/13 06:28:32;;;;;;;5.70;2.60;;;;;;;;;;102798;1336;32340;-46
2023/01/13 06:31:10;;;;;;;5.20;2.60;;;;;;;;;;102835;1336;30840;-45
2023/01/13 06:33:49;;;;;;;5.30;2.30;;;;;;;;;;102724;1335;28897;-44
2023/01/13 06:36:30;;;;;;;4.90;2.60;;;;;;;;;;102557;1337;30440;-44
2023/01/13 06:39:07;;;;;;;6.50;2.80;;;;;;;;;;102585;1337;31121;-48
2023/01/13 06:44:40;;;;;;;5.40;2.60;;;;;;;;;;102678;1336;28979;-46
2023/01/13 06:47:17;;;;;;;4.90;2.60;;;;;;;;;;102805;1336;30576;-45
2023/01/13 06:49:58;;;;;;;5.00;2.50;;;;;;;;;;102813;1336;31007;-45
2023/01/13 06:52:33;;;;;;;5.30;2.40;;;;;;;;;;102837;1336;29730;-45
2023/01/13 06:55:10;;;;;;;5.50;2.60;;;;;;;;;;102601;1337;28743;-44
2023/01/13 06:57:55;;;;;;;5.00;2.50;;;;;;;;;;102532;1337;30533;-43
2023/01/13 07:00:34;;;;;;;5.00;2.40;;;;;;;;;;102537;1337;30945;-44
2023/01/13 07:03:15;;;;;;;5.20;2.50;;;;;;;;;;102553;1337;29599;-45
2023/01/13 07:05:57;;;;;;;5.10;2.40;;;;;;;;;;102760;1336;28719;-45
2023/01/13 07:08:32;;;;;;;5.50;2.40;;;;;;;;;;102842;1336;30402;-44
2023/01/13 07:11:09;;;;;;;5.20;2.60;;;;;;;;;;102810;1336;31176;-48
2023/01/13 07:16:36;;;;;;;5.10;2.70;;;;;;;;;;102565;1337;39073;-48
2023/01/13 07:19:11;;;;;;;5.20;2.50;;;;;;;;;;102550;1337;30418;-44
2023/01/13 07:21:46;;;;;;;4.70;2.30;;;;;;;;;;102561;1337;30841;-44
2023/01/13 07:24:21;;;;;;;5.40;2.30;;;;;;;;;;102548;1337;29774;-46
2023/01/13 07:26:56;;;;;;;5.00;2.40;;;;;;;;;;102831;1336;38566;-45
2023/01/13 07:29:30;;;;;;;5.40;2.40;;;;;;;;;;102789;1336;30383;-44
2023/01/13 07:32:05;;;;;;;5.30;2.50;;;;;;;;;;102687;1336;30943;-44
2023/01/13 07:34:40;;;;;;;4.60;2.20;;;;;;;;;;102807;1336;29851;-44
2023/01/13 07:37:16;;;;;;;4.60;2.30;;;;;;;;;;102543;1337;39604;-45
2023/01/13 07:39:51;;;;;;;4.60;2.30;;;;;;;;;;102523;1337;30622;-45
2023/01/13 07:45:19;;;;;;;4.20;2.00;;;;;;;;;;102557;1336;31111;-44
2023/01/13 07:47:56;;;;;;;4.50;2.30;;;;;;;;;;102831;1336;28918;-44
2023/01/13 07:50:30;;;;;;;4.90;2.20;;;;;;;;;;102800;1336;30294;-45
2023/01/13 07:53:06;;;;;;;4.60;2.30;;;;;;;;;;102820;1336;31162;-44
2023/01/13 07:55:47;;;;;;;4.60;2.00;;;;;;;;;;102709;1337;29988;-47
2023/01/13 07:58:21;;;;;;;4.80;2.20;;;;;;;;;;102530;1337;28937;-43
2023/01/13 08:00:57;;;;;;;4.80;2.20;;;;;;;;;;102568;1337;31271;-44
2023/01/13 08:03:32;;;;;;;5.60;2.30;;;;;;;;;;102275;1337;330707;-43
2023/01/13 08:06:07;;;;;;;5.80;2.40;;;;;;;;;;102569;1336;29794;-44
2023/01/13 08:08:42;;;;;;;4.90;2.20;;;;;;;;;;102827;1336;29038;-45
2023/01/13 08:11:19;;;;;;;5.10;2.20;;;;;;;;;;102817;1337;30345;-44
2023/01/13 08:14:01;;;;;;;5.00;2.10;;;;;;;;;;102804;1337;31176;-45
2023/01/13 08:16:37;;;;;;;4.70;2.20;;;;;;;;;;102642;1336;29456;-44
2023/01/13 08:19:13;;;;;;;4.70;2.20;;;;;;;;;;102567;1337;29092;-44
2023/01/13 08:21:47;;;;;;;4.90;2.30;;;;;;;;;;102507;1337;30285;-44
2023/01/13 08:24:22;;;;;;;5.30;2.10;;;;;;;;;;102532;1337;33812;-44
2023/01/13 08:26:58;;;;;;;5.10;2.20;;;;;;;;;;102646;1337;29401;-45
2023/01/13 08:29:35;;;;;;;4.50;2.10;;;;;;;;;;102805;1336;29067;-45
2023/01/13 08:32:12;;;;;;;5.40;2.30;;;;;;;;;;102816;1336;30468;-44
2023/01/13 08:34:47;;;;;;;5.00;2.20;;;;;;;;;;102824;1337;30946;-43
2023/01/13 08:37:21;;;;;;;6.00;2.40;;;;;;;;;;102643;1337;29787;-43
2023/01/13 08:40:02;;;;;;;5.30;2.20;;;;;;;;;;102559;1337;28760;-43
2023/01/13 08:42:36;;;;;;;5.30;2.20;;;;;;;;;;102586;1337;30057;-44
2023/01/13 08:45:15;;;;;;;4.90;2.20;;;;;;;;;;102577;1337;31295;-43
2023/01/13 08:47:50;;;;;;;4.70;2.10;;;;;;;;;;102671;1336;29961;-44
2023/01/13 08:50:25;;;;;;;5.10;2.30;;;;;;;;;;102793;1336;28865;-45
2023/01/13 08:53:08;;;;;;;4.30;2.00;;;;;;;;;;102574;1336;176742;-44
2023/01/13 08:55:46;;;;;;;5.60;2.40;;;;;;;;;;102823;1336;31262;-44
2023/01/13 08:58:24;;;;;;;5.40;2.30;;;;;;;;;;102569;1337;29925;-43
2023/01/13 09:01:07;;;;;;;5.00;2.00;;;;;;;;;;102576;1337;28987;-44
2023/01/13 09:03:42;;;;;;;5.20;2.40;;;;;;;;;;102559;1337;30543;-44
2023/01/13 09:06:18;;;;;;;5.10;2.40;;;;;;;;;;102563;1337;31053;-44
2023/01/13 09:08:53;;;;;;;5.00;2.30;;;;;;;;;;102762;1337;38801;-44
2023/01/13 09:14:30;;;;;;;6.90;2.30;;;;;;;;;;102797;1336;30527;-45
2023/01/13 09:17:06;;;;;;;5.10;2.10;;;;;;;;;;102764;1336;31022;-45
2023/01/13 09:19:41;;;;;;;5.00;2.30;;;;;;;;;;102518;1337;30013;-43
2023/01/13 09:22:19;;;;;;;5.70;2.20;;;;;;;;;;102586;1337;28962;-43
2023/01/13 09:24:53;;;;;;;5.80;2.20;;;;;;;;;;102557;1337;30185;-43
2023/01/13 09:27:28;;;;;;;5.80;2.10;;;;;;;;;;102588;1336;31074;-43
2023/01/13 09:30:04;;;;;;;4.80;2.20;;;;;;;;;;102811;1336;30778;-44
2023/01/13 09:32:41;;;;;;;4.90;2.10;;;;;;;;;;102829;1336;28848;-45
2023/01/13 09:35:17;;;;;;;5.80;2.40;;;;;;;;;;102768;1335;30114;-44
2023/01/13 09:37:52;;;;;;;5.10;2.10;;;;;;;;;;102706;1337;30997;-43
2023/01/13 09:40:29;;;;;;;4.40;2.20;;;;;;;;;;102586;1337;29776;-46
2023/01/13 09:49:19;;;;;;;4.90;2.20;;;;;;;;;;102718;1336;30943;-43
2023/01/13 09:52:04;;;;;;;5.40;2.20;;;;;;;;;;102586;1309;29512;-35
2023/01/13 09:54:47;;;;;;;4.70;2.10;;;;;;;;;;102413;1340;29165;-37
2023/01/13 09:57:24;;;;;;;5.80;2.40;;;;;;;;;;102508;1340;30523;-36
2023/01/13 10:00:00;;;;;;;5.20;2.20;;;;;;;;;;102359;1340;41188;-36
2023/01/13 10:03:01;;;;;;;4.90;2.40;;;;;;;;;;102449;1339;29873;-36
2023/01/13 10:05:42;;;;;;;5.50;2.00;;;;;;;;;;102465;1339;28707;-39
2023/01/13 10:08:22;;;;;;;4.80;2.10;;;;;;;;;;102251;1340;176704;-36
2023/01/13 10:13:12;;;;;;;6.50;2.20;;;;;;;;;;102454;1339;32290;-36
2023/01/13 10:14:13;;;;;;;5.50;1.90;;;;;;;;;;102342;1339;29713;-34
2023/01/13 10:16:55;;;;;;;5.20;2.20;;;;;;;;;;102467;1339;28864;-34
2023/01/13 10:19:37;;;;;;;5.70;2.30;;;;;;;;;;102268;1340;30501;-33
2023/01/13 10:22:23;;;;;;;;;;;;;;;;;;102603;1340;31124;-33
2023/01/13 10:25:36;;;;;;;5.80;2.20;;;;;;;;;;102510;1339;29251;-33
2023/01/13 10:28:17;;;;;;;4.70;1.90;;;;;;;;;;102528;1340;29066;-33
2023/01/13 10:30:52;;;;;;;4.90;2.10;;;;;;;;;;102537;1338;42360;-33
2023/01/13 10:33:29;;;;;;;4.70;2.10;;;;;;;;;;102525;1338;32534;-34
2023/01/13 10:36:11;;;;;;;5.10;2.20;;;;;;;;;;102528;1339;29674;-34
2023/01/13 10:38:48;;;;;;;4.70;2.20;;;;;;;;;;102516;1339;30053;-34
2023/01/13 10:41:27;;;;;;;4.70;2.20;;;;;;;;;;102538;1337;30418;-34
2023/01/13 10:44:05;;;;;;;5.00;1.90;;;;;;;;;;102539;1340;31323;-34
2023/01/13 10:46:57;;;;;;;4.60;2.10;;;;;;;;;;102506;1339;30116;-34
2023/01/13 10:49:36;;;;;;;4.60;2.00;;;;;;;;;;102452;1339;30395;-34
2023/01/13 10:52:35;;;;;;;4.90;2.10;;;;;;;;;;102504;1340;30539;-34
2023/01/13 10:55:30;;;;;;;5.10;2.10;;;;;;;;;;102525;1338;32378;-34
2023/01/13 10:58:19;;;;;;;5.50;2.30;;;;;;;;;;102568;1339;29857;-34
2023/01/13 11:01:04;;;;;;;4.50;1.90;;;;;;;;;;102500;1339;30114;-34
2023/01/13 11:03:43;;;;;;;4.60;2.10;;;;;;;;;;102547;1339;30129;-34
2023/01/13 11:06:29;;;;;;;4.50;2.10;;;;;;;;;;102501;1338;31246;-33
2023/01/13 11:09:03;;;;;;;4.60;2.00;;;;;;;;;;102497;1339;29610;-33
2023/01/13 11:11:46;;;;;;;5.00;2.20;;;;;;;;;;102616;1340;39016;-33
2023/01/13 11:14:35;;;;;;;4.30;2.10;;;;;;;;;;102516;1339;31707;-34
2023/01/13 11:17:34;;;;;;;5.30;2.30;;;;;;;;;;102513;1339;31165;-34
2023/01/13 11:20:28;;;;;;;4.80;2.30;;;;;;;;;;102503;1339;29720;-34
2023/01/13 11:23:08;;;;;;;4.50;2.10;;;;;;;;;;102524;1339;30203;-34
2023/01/13 11:25:47;;;;;;;4.60;2.00;;;;;;;;;;102509;1339;31388;-34
2023/01/13 11:28:36;;;;;;;4.60;2.00;;;;;;;;;;102513;1339;31282;-34
2023/01/13 11:31:21;;;;;;;4.10;2.00;;;;;;;;;;102474;1339;29683;-34
2023/01/13 11:34:02;;;;;;;4.60;2.40;;;;;;;;;;102523;1339;29180;-33
2023/01/13 11:36:46;;;;;;;4.70;2.10;;;;;;;;;;102533;1339;30494;-33
2023/01/13 11:39:26;;;;;;;4.30;2.10;;;;;;;;;;102556;1338;31219;-34
2023/01/13 11:42:23;;;;;;;4.50;2.10;;;;;;;;;;102506;1339;29931;-34
2023/01/13 11:45:17;;;;;;;4.80;2.00;;;;;;;;;;102476;1339;29093;-34
2023/01/13 11:47:57;;;;;;;4.70;2.20;;;;;;;;;;102528;1339;30424;-34
2023/01/13 11:50:42;;;;;;;4.40;2.20;;;;;;;;;;102491;1339;31201;-34
2023/01/13 11:53:34;;;;;;;5.40;2.10;;;;;;;;;;102528;1339;31090;-34
2023/01/13 11:56:31;;;;;;;4.60;2.30;;;;;;;;;;102540;1339;29075;-34
2023/01/13 11:59:34;;;;;;;4.80;2.20;;;;;;;;;;102526;1340;30556;-34
2023/01/13 12:02:37;;;;;;;4.00;2.10;;;;;;;;;;102479;1339;31296;-34
2023/01/13 12:05:23;;;;;;;4.20;2.20;;;;;;;;;;102292;1340;29384;-34
2023/01/13 12:08:14;;;;;;;4.50;2.20;;;;;;;;;;102516;1339;29131;-34
2023/01/13 12:11:06;;;;;;;4.60;2.20;;;;;;;;;;102502;1340;30423;-34
2023/01/13 12:13:51;;;;;;;4.30;2.20;;;;;;;;;;102518;1339;33390;-34
2023/01/13 12:16:30;;;;;;;4.50;2.10;;;;;;;;;;102556;1340;29973;-34
2023/01/13 12:19:28;;;;;;;4.90;2.20;;;;;;;;;;102532;1339;28947;-34
2023/01/13 12:22:18;;;;;;;5.10;2.30;;;;;;;;;;102503;1339;30500;-34
2023/01/13 12:25:03;;;;;;;4.30;2.10;;;;;;;;;;102483;1339;31305;-34
2023/01/13 12:27:43;;;;;;;5.00;2.20;;;;;;;;;;102538;1339;29796;-34
2023/01/13 12:30:28;;;;;;;4.30;2.10;;;;;;;;;;102509;1338;29002;-34
2023/01/13 12:33:15;;;;;;;4.40;2.10;;;;;;;;;;102369;1339;176523;-34
2023/01/13 12:36:01;;;;;;;4.60;2.10;;;;;;;;;;102508;1340;31305;-34
2023/01/13 12:38:45;;;;;;;4.40;2.30;;;;;;;;;;102532;1339;29651;-33
2023/01/13 12:41:33;;;;;;;4.70;2.20;;;;;;;;;;102482;1338;28997;-34
2023/01/13 12:44:19;;;;;;;5.00;2.20;;;;;;;;;;102417;1339;176790;-34
2023/01/13 12:46:56;;;;;;;4.90;2.30;;;;;;;;;;102561;1340;31329;-34
2023/01/13 12:49:35;;;;;;;5.00;2.40;;;;;;;;;;102528;1339;31036;-34
2023/01/13 12:52:20;;;;;;;4.50;2.10;;;;;;;;;;102492;1340;28847;-34
2023/01/13 12:55:21;;;;;;;4.50;2.20;;;;;;;;;;102525;1339;32677;-34
2023/01/13 12:58:16;;;;;;;4.90;2.40;;;;;;;;;;102519;1340;31106;-34
2023/01/13 13:01:10;;;;;;;4.40;2.10;;;;;;;;;;102518;1339;31125;-34
2023/01/13 13:04:14;;;;;;;4.40;2.20;;;;;;;;;;102467;1339;28908;-34
2023/01/13 13:06:54;;;;;;;4.50;2.40;;;;;;;;;;102505;1338;30577;-34
2023/01/13 13:09:35;;;;;;;4.40;2.20;;;;;;;;;;102526;1338;31024;-34
2023/01/13 13:15:52;;;;;;;4.20;2.20;;;;;;;;;;102403;1340;176755;-34
2023/01/13 13:18:29;;;;;;;4.20;2.00;;;;;;;;;;102522;1339;30571;-33
2023/01/13 13:21:09;;;;;;;4.90;2.40;;;;;;;;;;102306;1339;31108;-33
2023/01/13 13:24:03;;;;;;;4.40;2.10;;;;;;;;;;102495;1339;29814;-34
2023/01/13 13:26:46;;;;;;;4.60;2.20;;;;;;;;;;102516;1339;28864;-34
2023/01/13 13:29:50;;;;;;;4.70;2.20;;;;;;;;;;102552;1339;30566;-34
2023/01/13 13:33:14;;;;;;;4.20;2.20;;;;;;;;;;102459;1338;32459;-34
2023/01/13 13:36:02;;;;;;;4.60;2.40;;;;;;;;;;102524;1339;29769;-34
2023/01/13 13:48:40;;;;;;;4.80;2.30;;;;;;;;;;102057;1345;30983;-34
2023/01/13 13:51:30;;;;;;;4.60;2.30;;;;;;;;;;102438;1338;29146;-34
2023/01/13 13:54:05;;;;;;;4.60;2.60;;;;;;;;;;102509;1339;30374;-33
2023/01/13 13:56:44;;;;;;;4.70;2.20;;;;;;;;;;102470;1340;31147;-33
2023/01/13 13:59:24;;;;;;;4.30;2.20;;;;;;;;;;102539;1339;29776;-33
2023/01/13 14:02:03;;;;;;;4.40;2.30;;;;;;;;;;102518;1339;28844;-33
2023/01/13 14:04:39;;;;;;;4.20;2.10;;;;;;;;;;102479;1339;30204;-33
2023/01/13 14:07:23;;;;;;;4.40;2.10;;;;;;;;;;102529;1339;31077;-33
2023/01/13 14:09:58;;;;;;;4.20;2.10;;;;;;;;;;102503;1340;29594;-33
2023/01/13 14:12:41;;;;;;;4.40;2.20;;;;;;;;;;102512;1339;29082;-33
2023/01/13 14:15:37;;;;;;;4.30;2.30;;;;;;;;;;102485;1339;30589;-33
2023/01/13 14:18:20;;;;;;;4.60;2.20;;;;;;;;;;102519;1340;31284;-34
2023/01/13 14:21:03;;;;;;;4.80;2.40;;;;;;;;;;102516;1339;31122;-34
2023/01/13 14:23:39;;;;;;;4.80;2.50;;;;;;;;;;102551;1339;29081;-34
2023/01/13 14:26:16;;;;;;;4.30;2.30;;;;;;;;;;102626;1339;40405;-34
2023/01/13 14:28:50;;;;;;;4.40;2.20;;;;;;;;;;102504;1338;31278;-34
2023/01/13 14:31:26;;;;;;;4.50;2.10;;;;;;;;;;102502;1339;29691;-34
2023/01/13 14:34:07;;;;;;;4.40;2.20;;;;;;;;;;102524;1339;28920;-34
2023/01/13 14:37:03;;;;;;;4.60;2.30;;;;;;;;;;102475;1339;42023;-34
2023/01/13 14:39:42;;;;;;;4.70;2.60;;;;;;;;;;102525;1339;31464;-34
2023/01/13 14:42:20;;;;;;;4.40;2.40;;;;;;;;;;102538;1338;29852;-35
2023/01/13 14:44:55;;;;;;;7.90;2.40;;;;;;;;;;102428;1339;28732;-37
2023/01/13 14:47:34;;;;;;;5.10;2.10;;;;;;;;;;102320;1340;39494;-37
2023/01/13 14:50:27;;;;;;;5.30;2.60;;;;;;;;;;102539;1339;32182;-35
2023/01/13 14:53:04;;;;;;;5.00;2.30;;;;;;;;;;102397;1340;30966;-35
2023/01/13 14:55:43;;;;;;;4.60;2.50;;;;;;;;;;102248;1340;30045;-35
2023/01/13 14:58:30;;;;;;;4.80;2.20;;;;;;;;;;102294;1340;30398;-36
2023/01/13 15:01:38;;;;;;;5.00;2.50;;;;;;;;;;102389;1339;30902;-36
2023/01/13 15:04:32;;;;;;;5.60;2.70;;;;;;;;;;102381;1340;29981;-37
2023/01/13 15:07:20;;;;;;;5.20;2.40;;;;;;;;;;102502;1339;28727;-36
2023/01/13 15:09:57;;;;;;;5.50;2.70;;;;;;;;;;102541;1339;30378;-36
2023/01/13 15:12:39;;;;;;;5.50;2.80;;;;;;;;;;102516;1339;31136;-37
2023/01/13 15:15:31;;;;;;;5.10;2.90;;;;;;;;;;102509;1339;29837;-37
2023/01/13 15:18:13;;;;;;;5.00;2.70;;;;;;;;;;102363;1341;38124;-36
2023/01/13 15:20:49;;;;;;;5.80;2.90;;;;;;;;;;102286;1340;30203;-35
2023/01/13 15:23:24;;;;;;;5.80;2.90;;;;;;;;;;102285;1342;31265;-34
2023/01/13 15:26:01;;;;;;;5.20;2.70;;;;;;;;;;102269;1343;29441;-34
2023/01/13 15:28:35;;;;;;;4.90;2.70;;;;;;;;;;102298;1340;39503;-34
2023/01/13 15:31:11;;;;;;;4.90;2.80;;;;;;;;;;102393;1340;30283;-34
2023/01/13 15:33:46;;;;;;;5.10;2.80;;;;;;;;;;102329;1340;30987;-35
2023/01/13 15:36:27;;;;;;;5.20;2.90;;;;;;;;;;102171;1340;176514;-35
2023/01/13 15:39:03;;;;;;;5.50;2.60;;;;;;;;;;102336;1340;37575;-34
2023/01/13 15:47:28;;;;;;;5.20;2.90;;;;;;;;;;102293;1340;29831;-34
2023/01/13 15:50:04;;;;;;;5.00;2.90;;;;;;;;;;102311;1340;28758;-34
2023/01/13 15:52:41;;;;;;;5.00;2.90;;;;;;;;;;102378;1339;30150;-35
2023/01/13 15:55:18;;;;;;;5.00;2.70;;;;;;;;;;102518;1339;31095;-35
2023/01/13 15:57:56;;;;;;;5.20;2.90;;;;;;;;;;102486;1339;29714;-35
2023/01/13 16:00:33;;;;;;;4.90;2.80;;;;;;;;;;102515;1339;28860;-35
2023/01/13 16:03:09;;;;;;;5.10;2.90;;;;;;;;;;102521;1339;30326;-35
2023/01/13 16:05:48;;;;;;;4.70;2.60;;;;;;;;;;102359;1339;32137;-35
2023/01/13 16:08:26;;;;;;;4.90;2.70;;;;;;;;;;102531;1339;29765;-35
2023/01/13 16:11:01;;;;;;;5.40;2.90;;;;;;;;;;102523;1339;28853;-35
2023/01/13 16:13:39;;;;;;;4.80;2.80;;;;;;;;;;102510;1340;30212;-35
2023/01/13 16:16:28;;;;;;;5.40;3.00;;;;;;;;;;102529;1340;31122;-35
2023/01/13 16:19:06;;;;;;;4.70;2.70;;;;;;;;;;102476;1339;29385;-35
2023/01/13 16:21:41;;;;;;;5.60;2.80;;;;;;;;;;102557;1339;30200;-35
2023/01/13 16:24:16;;;;;;;4.90;2.80;;;;;;;;;;102536;1338;30525;-35
2023/01/13 16:26:51;;;;;;;5.20;2.80;;;;;;;;;;102536;1339;31234;-35
2023/01/13 16:29:28;;;;;;;5.10;2.80;;;;;;;;;;102497;1338;29587;-35
2023/01/13 16:32:04;;;;;;;5.30;3.10;;;;;;;;;;102564;1340;28891;-35
2023/01/13 16:34:43;;;;;;;5.20;2.70;;;;;;;;;;102553;1339;30515;-35
2023/01/13 16:37:23;;;;;;;5.40;3.00;;;;;;;;;;102536;1339;31308;-35
2023/01/13 16:40:02;;;;;;;5.60;3.00;;;;;;;;;;102515;1339;29349;-35
2023/01/13 16:42:40;;;;;;;4.90;2.60;;;;;;;;;;102535;1339;28958;-35
2023/01/13 16:45:15;;;;;;;5.00;2.90;;;;;;;;;;102544;1338;30547;-35
2023/01/13 16:47:50;;;;;;;5.40;3.10;;;;;;;;;;102518;1338;31334;-36
2023/01/13 16:50:38;;;;;;;5.60;2.90;;;;;;;;;;102497;1340;29768;-35
2023/01/13 16:53:13;;;;;;;5.60;3.20;;;;;;;;;;102434;1339;29212;-36
2023/01/13 16:55:48;;;;;;;5.00;2.90;;;;;;;;;;102515;1339;30534;-34